Time;durP1;ratioP1;P1;durP2;ratioP2;P2;SDS_P1;SDS_P2;PMS_P1;PMS_P2;Temp;Humidity;BMP_temperature;BMP_pressure;BME280_temperature;BME280_humidity;BME280_pressure;Samples;Min_cycle;Max_cycle;Signal;HPM_P1;HPM_P2
2024/01/13 00:00:36;;;;;;;;;;;-4.20;99.90;;;;;;5112521;28;20261;-75
2024/01/13 00:03:01;;;;;;;;;;;-4.10;99.90;;;;;;5112407;28;19919;-75
2024/01/13 00:05:27;;;;;;;;;;;-4.00;99.90;;;;;;5112457;28;19908;-76
2024/01/13 00:07:52;;;;;;;;;;;-4.00;99.90;;;;;;5094026;28;20347;-75
2024/01/13 00:10:18;;;;;;;;;;;-4.00;99.90;;;;;;5112397;28;19908;-75
2024/01/13 00:12:43;;;;;;;;;;;-4.10;99.90;;;;;;5112328;28;19978;-75
2024/01/13 00:15:09;;;;;;;;;;;-4.30;99.90;;;;;;5094041;28;19915;-76
2024/01/13 00:17:34;;;;;;;;;;;-4.30;99.90;;;;;;5112866;28;19965;-76
2024/01/13 00:20:00;;;;;;;;;;;-4.30;99.90;;;;;;5112626;28;19915;-75
2024/01/13 00:22:25;;;;;;;;;;;-4.40;99.90;;;;;;5113542;28;20011;-76
2024/01/13 00:24:51;;;;;;;;;;;-4.30;99.90;;;;;;5113716;28;19944;-76
2024/01/13 00:27:17;;;;;;;;;;;-4.30;99.90;;;;;;5093603;28;19912;-76
2024/01/13 00:29:43;;;;;;;;;;;-4.20;99.90;;;;;;5112198;28;19908;-75
2024/01/13 00:32:08;;;;;;;;;;;-4.10;99.90;;;;;;5093751;28;20436;-76
2024/01/13 00:34:34;;;;;;;;;;;-4.10;99.90;;;;;;5112286;28;19962;-76
2024/01/13 00:36:59;;;;;;;;;;;-4.30;99.90;;;;;;5112368;28;19912;-75
2024/01/13 00:39:25;;;;;;;;;;;-4.40;99.90;;;;;;5111747;28;19920;-75
2024/01/13 00:41:50;;;;;;;;;;;-4.40;99.90;;;;;;5093483;28;19920;-76
2024/01/13 00:44:16;;;;;;;;;;;-4.40;99.90;;;;;;5093695;28;19980;-76
2024/01/13 00:46:41;;;;;;;;;;;-4.50;99.90;;;;;;5111906;28;19911;-75
2024/01/13 00:49:07;;;;;;;;;;;-4.50;99.90;;;;;;5112021;28;19953;-75
2024/01/13 00:51:33;;;;;;;;;;;-4.50;99.90;;;;;;5093696;28;19919;-76
2024/01/13 00:53:59;;;;;;;;;;;-4.50;99.90;;;;;;5093635;28;19954;-76
2024/01/13 00:56:25;;;;;;;;;;;-4.50;99.90;;;;;;5112441;28;19973;-76
2024/01/13 00:58:50;;;;;;;;;;;-4.50;99.90;;;;;;5094227;28;19956;-75
2024/01/13 01:01:16;;;;;;;;;;;-4.60;99.90;;;;;;5093231;28;19996;-75
2024/01/13 01:03:42;;;;;;;;;;;-4.50;99.90;;;;;;5093568;28;19962;-75
2024/01/13 01:06:07;;;;;;;;;;;-4.30;99.90;;;;;;5111821;28;19954;-76
2024/01/13 01:08:33;;;;;;;;;;;-4.30;99.90;;;;;;5096424;28;19947;-75
2024/01/13 01:10:58;;;;;;;;;;;-4.40;99.90;;;;;;5115657;28;20337;-76
2024/01/13 01:13:24;;;;;;;;;;;-4.40;99.90;;;;;;5097201;28;19912;-75
2024/01/13 01:15:49;;;;;;;;;;;-4.40;99.90;;;;;;5115209;28;19908;-75
2024/01/13 01:18:15;;;;;;;;;;;-4.50;99.90;;;;;;5097330;28;20002;-75
2024/01/13 01:20:40;;;;;;;;;;;-4.50;99.90;;;;;;5096916;28;19951;-75
2024/01/13 01:23:06;;;;;;;;;;;-4.50;99.90;;;;;;5096777;28;20002;-75
2024/01/13 01:25:31;;;;;;;;;;;-4.50;99.90;;;;;;5114818;28;20372;-76
2024/01/13 01:27:57;;;;;;;;;;;-4.50;99.90;;;;;;5096950;28;20006;-76
2024/01/13 01:30:23;;;;;;;;;;;-4.50;99.90;;;;;;5096655;28;19914;-75
2024/01/13 01:32:49;;;;;;;;;;;-4.40;99.90;;;;;;5114835;28;19915;-76
2024/01/13 01:35:14;;;;;;;;;;;-4.20;99.90;;;;;;5114981;28;19939;-75
2024/01/13 01:37:40;;;;;;;;;;;-4.30;99.90;;;;;;5115056;28;19965;-75
2024/01/13 01:40:07;;;;;;;;;;;-4.30;99.90;;;;;;5096275;28;19920;-76
2024/01/13 01:42:33;;;;;;;;;;;-4.10;99.90;;;;;;5096360;28;20392;-76
2024/01/13 01:44:58;;;;;;;;;;;-4.10;99.90;;;;;;5115160;28;19958;-75
2024/01/13 01:47:24;;;;;;;;;;;-4.20;99.90;;;;;;5096681;28;19915;-75
2024/01/13 01:49:50;;;;;;;;;;;-4.20;99.90;;;;;;5096345;28;19908;-76
2024/01/13 01:52:16;;;;;;;;;;;-4.30;99.90;;;;;;5096746;28;19919;-76
2024/01/13 01:54:42;;;;;;;;;;;-4.40;99.90;;;;;;5096227;28;19907;-76
2024/01/13 01:57:10;;;;;;;;;;;-4.40;99.90;;;;;;5096174;28;19907;-75
2024/01/13 01:59:35;;;;;;;;;;;-4.30;99.90;;;;;;5114519;28;19908;-75
2024/01/13 02:02:02;;;;;;;;;;;-4.30;99.90;;;;;;5096416;28;19968;-76
2024/01/13 02:04:27;;;;;;;;;;;-4.40;99.90;;;;;;5114784;28;19915;-75
2024/01/13 02:06:53;;;;;;;;;;;-4.20;99.90;;;;;;5096049;28;19908;-75
2024/01/13 02:09:19;;;;;;;;;;;-4.10;99.90;;;;;;5096825;28;19919;-75
2024/01/13 02:11:45;;;;;;;;;;;-4.10;99.90;;;;;;5096336;28;19908;-75
2024/01/13 02:14:10;;;;;;;;;;;-4.20;99.90;;;;;;5114438;28;19946;-76
2024/01/13 02:16:36;;;;;;;;;;;-4.30;99.90;;;;;;5095978;28;19955;-76
2024/01/13 02:19:01;;;;;;;;;;;-4.40;99.90;;;;;;5113376;28;20004;-75
2024/01/13 02:21:27;;;;;;;;;;;-4.50;99.90;;;;;;5095882;28;19907;-76
2024/01/13 02:23:52;;;;;;;;;;;-4.60;99.90;;;;;;5114196;28;20383;-76
2024/01/13 02:26:18;;;;;;;;;;;-4.70;99.90;;;;;;5113922;28;19908;-75
2024/01/13 02:28:43;;;;;;;;;;;-4.70;99.90;;;;;;5095607;28;19912;-75
2024/01/13 02:31:09;;;;;;;;;;;-4.60;99.90;;;;;;5095502;28;19956;-75
2024/01/13 02:33:34;;;;;;;;;;;-4.50;99.90;;;;;;5114103;28;20379;-76
2024/01/13 02:36:00;;;;;;;;;;;-4.60;99.90;;;;;;5095750;28;19908;-75
2024/01/13 02:38:25;;;;;;;;;;;-4.50;99.90;;;;;;5095359;28;19920;-76
2024/01/13 02:40:51;;;;;;;;;;;-4.30;99.90;;;;;;5113308;28;19933;-75
2024/01/13 02:43:16;;;;;;;;;;;-4.40;99.90;;;;;;5095192;28;20010;-75
2024/01/13 02:45:42;;;;;;;;;;;-4.50;99.90;;;;;;5095523;28;19908;-75
2024/01/13 02:48:10;;;;;;;;;;;-4.50;99.90;;;;;;5113860;28;19954;-75
2024/01/13 02:50:35;;;;;;;;;;;-4.50;99.90;;;;;;5113861;28;19918;-75
2024/01/13 02:53:01;;;;;;;;;;;-4.20;99.90;;;;;;5113582;28;19911;-76
2024/01/13 02:55:26;;;;;;;;;;;-4.50;99.90;;;;;;5113717;28;19908;-75
2024/01/13 02:57:52;;;;;;;;;;;-4.50;99.90;;;;;;5095286;28;19907;-76
2024/01/13 03:00:17;;;;;;;;;;;-4.60;99.90;;;;;;5095266;28;19937;-75
2024/01/13 03:02:44;;;;;;;;;;;-4.70;99.90;;;;;;5113777;28;19924;-74
2024/01/13 03:05:09;;;;;;;;;;;-4.70;99.90;;;;;;5114127;28;19918;-74
2024/01/13 03:07:35;;;;;;;;;;;-4.60;99.90;;;;;;5113326;28;19912;-76
2024/01/13 03:10:01;;;;;;;;;;;-4.60;99.90;;;;;;5095695;28;19919;-76
2024/01/13 03:12:26;;;;;;;;;;;-4.60;99.90;;;;;;5094819;28;19991;-75
2024/01/13 03:14:52;;;;;;;;;;;-4.70;99.90;;;;;;5094757;28;19908;-75
2024/01/13 03:17:17;;;;;;;;;;;-4.60;99.90;;;;;;5094772;28;19911;-75
2024/01/13 03:19:43;;;;;;;;;;;-4.70;99.90;;;;;;5112678;28;19912;-76
2024/01/13 03:22:08;;;;;;;;;;;-4.70;99.90;;;;;;5094654;28;19919;-75
2024/01/13 03:24:34;;;;;;;;;;;-4.70;99.90;;;;;;5094489;28;20394;-75
2024/01/13 03:26:59;;;;;;;;;;;-4.70;99.90;;;;;;5114109;28;19920;-76
2024/01/13 03:29:25;;;;;;;;;;;-4.50;99.90;;;;;;5095451;28;19908;-76
2024/01/13 03:31:50;;;;;;;;;;;-4.50;99.90;;;;;;5112398;28;19908;-75
2024/01/13 03:34:16;;;;;;;;;;;-4.50;99.90;;;;;;5112597;28;19908;-75
2024/01/13 03:36:41;;;;;;;;;;;-4.60;99.90;;;;;;5112520;28;19912;-75
2024/01/13 03:39:09;;;;;;;;;;;-4.70;99.90;;;;;;5093867;28;19916;-76
2024/01/13 03:41:35;;;;;;;;;;;-4.70;99.90;;;;;;5094412;28;19908;-75
2024/01/13 03:44:00;;;;;;;;;;;-4.70;99.90;;;;;;5094137;28;20280;-76
2024/01/13 03:46:26;;;;;;;;;;;-4.80;99.90;;;;;;5112246;28;20321;-76
2024/01/13 03:48:51;;;;;;;;;;;-4.80;99.90;;;;;;5112485;28;19919;-75
2024/01/13 03:51:17;;;;;;;;;;;-4.90;99.90;;;;;;5112329;28;19915;-75
2024/01/13 03:53:42;;;;;;;;;;;-4.80;99.90;;;;;;5094065;28;20322;-75
2024/01/13 03:56:08;;;;;;;;;;;-4.80;99.90;;;;;;5112603;28;20371;-76
2024/01/13 03:58:34;;;;;;;;;;;-4.80;99.90;;;;;;5093927;28;20284;-75
2024/01/13 04:01:00;;;;;;;;;;;-4.80;99.90;;;;;;5112148;28;19961;-75
2024/01/13 04:03:25;;;;;;;;;;;-4.80;99.90;;;;;;5093885;28;19919;-76
2024/01/13 04:05:51;;;;;;;;;;;-4.70;99.90;;;;;;5112355;28;19915;-76
2024/01/13 04:08:18;;;;;;;;;;;-4.60;99.90;;;;;;5112392;28;19908;-75
2024/01/13 04:10:43;;;;;;;;;;;-4.50;99.90;;;;;;5112235;28;20364;-75
2024/01/13 04:13:13;;;;;;;;;;;-4.50;99.90;;;;;;5093961;28;19965;-75
2024/01/13 04:15:38;;;;;;;;;;;-4.70;99.90;;;;;;5094267;28;19908;-76
2024/01/13 04:18:04;;;;;;;;;;;-4.60;99.90;;;;;;5094008;28;19912;-75
2024/01/13 04:20:29;;;;;;;;;;;-4.60;99.90;;;;;;5112268;28;19908;-75
2024/01/13 04:22:55;;;;;;;;;;;-4.70;99.90;;;;;;5111981;28;19927;-75
2024/01/13 04:25:21;;;;;;;;;;;-4.70;99.90;;;;;;5093823;28;19952;-76
2024/01/13 04:27:48;;;;;;;;;;;-4.80;99.90;;;;;;5112386;28;19958;-75
2024/01/13 04:30:14;;;;;;;;;;;-4.90;99.90;;;;;;5093817;28;19912;-76
2024/01/13 04:32:40;;;;;;;;;;;-4.90;99.90;;;;;;5112101;28;20284;-75
2024/01/13 04:35:06;;;;;;;;;;;-4.90;99.90;;;;;;5111762;28;19907;-75
2024/01/13 04:37:31;;;;;;;;;;;-4.90;99.90;;;;;;5093771;28;20432;-76
2024/01/13 04:39:57;;;;;;;;;;;-4.80;99.90;;;;;;5093402;28;19919;-75
2024/01/13 04:42:22;;;;;;;;;;;-4.70;99.90;;;;;;5112976;28;20008;-75
2024/01/13 04:44:48;;;;;;;;;;;-4.80;99.90;;;;;;5115974;28;19994;-75
2024/01/13 04:47:13;;;;;;;;;;;-4.80;99.90;;;;;;5116187;28;20097;-75
2024/01/13 04:49:39;;;;;;;;;;;-4.90;99.90;;;;;;5116106;28;19912;-76
2024/01/13 04:52:05;;;;;;;;;;;-4.90;99.90;;;;;;5098027;28;19926;-75
2024/01/13 04:54:30;;;;;;;;;;;-4.70;99.90;;;;;;5116078;28;19911;-75
2024/01/13 04:56:56;;;;;;;;;;;-4.70;99.90;;;;;;5097503;28;19918;-75
2024/01/13 04:59:21;;;;;;;;;;;-4.80;99.90;;;;;;5115948;28;19908;-76
2024/01/13 05:01:47;;;;;;;;;;;-4.90;99.90;;;;;;5097306;28;19923;-76
2024/01/13 05:04:12;;;;;;;;;;;-4.90;99.90;;;;;;5097576;28;19915;-76
2024/01/13 05:06:38;;;;;;;;;;;-4.90;99.90;;;;;;5116052;28;19935;-75
2024/01/13 05:09:04;;;;;;;;;;;-4.90;99.90;;;;;;5098306;28;20280;-76
2024/01/13 05:11:30;;;;;;;;;;;-4.80;99.90;;;;;;5098099;28;19920;-76
2024/01/13 05:13:55;;;;;;;;;;;-4.50;99.90;;;;;;5115679;28;19908;-75
2024/01/13 05:16:21;;;;;;;;;;;-4.70;99.90;;;;;;5097139;28;19915;-75
2024/01/13 05:18:46;;;;;;;;;;;-4.80;99.90;;;;;;5097482;28;19912;-75
2024/01/13 05:21:12;;;;;;;;;;;-4.80;99.90;;;;;;5115050;28;19915;-75
2024/01/13 05:23:37;;;;;;;;;;;-4.70;99.90;;;;;;5096814;28;20323;-75
2024/01/13 05:26:03;;;;;;;;;;;-4.70;99.90;;;;;;5097013;28;19908;-75
2024/01/13 05:28:29;;;;;;;;;;;-4.70;99.90;;;;;;5115215;28;19950;-76
2024/01/13 05:30:54;;;;;;;;;;;-4.70;99.90;;;;;;5114800;28;20292;-75
2024/01/13 05:33:20;;;;;;;;;;;-4.90;99.90;;;;;;5115004;28;19912;-75
2024/01/13 05:35:45;;;;;;;;;;;-4.80;99.90;;;;;;5096781;28;20498;-74
2024/01/13 05:38:11;;;;;;;;;;;-4.90;99.90;;;;;;5114836;28;20384;-74
2024/01/13 05:40:40;;;;;;;;;;;-4.80;99.90;;;;;;5113380;28;19917;-74
2024/01/13 05:43:07;;;;;;;;;;;-4.70;99.90;;;;;;5113517;28;19935;-74
2024/01/13 05:45:33;;;;;;;;;;;-4.40;99.90;;;;;;5114471;28;19951;-75
2024/01/13 05:47:58;;;;;;;;;;;-4.20;99.90;;;;;;5096046;28;19949;-74
2024/01/13 05:50:24;;;;;;;;;;;-4.10;99.90;;;;;;5114603;28;19919;-75
2024/01/13 05:52:49;;;;;;;;;;;-4.10;99.90;;;;;;5090417;28;19911;-75
2024/01/13 05:55:15;;;;;;;;;;;-4.10;99.90;;;;;;5112915;28;20403;-74
2024/01/13 05:57:40;;;;;;;;;;;-4.10;99.90;;;;;;5113559;28;20001;-75
2024/01/13 06:00:07;;;;;;;;;;;-3.90;99.90;;;;;;5114043;28;19912;-74
2024/01/13 06:02:32;;;;;;;;;;;-4.00;99.90;;;;;;5112613;28;19927;-76
2024/01/13 06:04:58;;;;;;;;;;;-3.80;99.90;;;;;;5095435;28;19908;-74
2024/01/13 06:07:23;;;;;;;;;;;-3.80;99.90;;;;;;5112536;28;20433;-75
2024/01/13 06:09:49;;;;;;;;;;;-3.60;99.90;;;;;;5112448;28;20002;-75
2024/01/13 06:12:14;;;;;;;;;;;-3.60;99.90;;;;;;5116795;27;20401;-76
2024/01/13 06:14:41;;;;;;;;;;;-3.70;99.90;;;;;;5112322;28;19908;-74
2024/01/13 06:17:07;;;;;;;;;;;-3.70;99.90;;;;;;5109900;27;19922;-75
2024/01/13 06:19:33;;;;;;;;;;;-3.60;99.90;;;;;;5134318;27;19908;-75
2024/01/13 06:21:58;;;;;;;;;;;-3.40;99.90;;;;;;5115848;27;19911;-75
2024/01/13 06:24:24;;;;;;;;;;;-3.30;99.90;;;;;;5124784;27;20317;-75
2024/01/13 06:26:49;;;;;;;;;;;-3.30;99.90;;;;;;5121209;27;19911;-75
2024/01/13 06:29:15;;;;;;;;;;;-3.20;99.90;;;;;;5114955;27;19958;-75
2024/01/13 06:31:40;;;;;;;;;;;-2.90;99.90;;;;;;5116051;27;20376;-75
2024/01/13 06:34:06;;;;;;;;;;;-3.00;99.90;;;;;;5096002;28;19914;-76
2024/01/13 06:36:31;;;;;;;;;;;-2.80;99.90;;;;;;5095674;28;19908;-75
2024/01/13 06:38:57;;;;;;;;;;;-2.60;99.90;;;;;;5131218;27;19920;-75
2024/01/13 06:41:23;;;;;;;;;;;-2.60;99.90;;;;;;5118790;27;20280;-75
2024/01/13 06:43:49;;;;;;;;;;;-2.60;99.90;;;;;;5105764;27;19927;-76
2024/01/13 06:46:14;;;;;;;;;;;-2.60;99.90;;;;;;5124935;27;19908;-76
2024/01/13 06:48:40;;;;;;;;;;;-2.50;99.90;;;;;;5104080;27;20401;-75
2024/01/13 06:51:05;;;;;;;;;;;-2.40;99.90;;;;;;5104047;27;19940;-75
2024/01/13 06:53:31;;;;;;;;;;;-2.30;99.90;;;;;;5120010;27;20375;-75
2024/01/13 06:55:56;;;;;;;;;;;-2.30;99.90;;;;;;5113915;28;19912;-75
2024/01/13 06:58:22;;;;;;;;;;;-2.30;99.90;;;;;;5121826;27;19911;-75
2024/01/13 07:00:47;;;;;;;;;;;-2.30;99.90;;;;;;5132711;27;20073;-75
2024/01/13 07:03:13;;;;;;;;;;;-2.30;99.90;;;;;;5134412;27;19926;-75
2024/01/13 07:05:39;;;;;;;;;;;-2.30;99.90;;;;;;5115672;27;20333;-75
2024/01/13 07:08:06;;;;;;;;;;;-2.30;99.90;;;;;;5134629;27;20011;-75
2024/01/13 07:10:31;;;;;;;;;;;-2.30;99.90;;;;;;5134570;27;19914;-75
2024/01/13 07:12:57;;;;;;;;;;;-2.30;99.90;;;;;;5116476;27;19908;-75
2024/01/13 07:15:22;;;;;;;;;;;-2.10;99.90;;;;;;5134495;27;19911;-75
2024/01/13 07:17:48;;;;;;;;;;;-1.90;99.90;;;;;;5116668;27;19955;-76
2024/01/13 07:20:13;;;;;;;;;;;-1.70;99.90;;;;;;5135304;27;19912;-76
2024/01/13 07:22:39;;;;;;;;;;;-1.50;99.90;;;;;;5113784;27;20010;-75
2024/01/13 07:25:05;;;;;;;;;;;-1.00;99.90;;;;;;5115100;27;19933;-75
2024/01/13 07:27:31;;;;;;;;;;;-0.50;99.90;;;;;;5133594;27;20375;-75
2024/01/13 07:29:58;;;;;;;;;;;0.00;99.90;;;;;;5133422;27;19915;-76
2024/01/13 07:32:23;;;;;;;;;;;0.30;99.90;;;;;;5114737;27;19911;-75
2024/01/13 07:34:49;;;;;;;;;;;0.60;99.90;;;;;;5115368;27;20327;-75
2024/01/13 07:37:14;;;;;;;;;;;0.80;99.90;;;;;;5133687;27;19981;-75
2024/01/13 07:39:40;;;;;;;;;;;0.90;99.90;;;;;;5133383;27;20060;-75
2024/01/13 07:42:06;;;;;;;;;;;1.00;99.90;;;;;;5115307;27;19919;-75
2024/01/13 07:44:33;;;;;;;;;;;0.60;99.90;;;;;;5114774;27;20489;-75
2024/01/13 07:47:01;;;;;;;;;;;0.30;99.90;;;;;;5114868;27;19916;-75
2024/01/13 07:49:27;;;;;;;;;;;0.00;99.90;;;;;;5098216;28;19916;-76
2024/01/13 07:51:54;;;;;;;;;;;-0.30;99.90;;;;;;5097717;27;19908;-75
2024/01/13 07:54:20;;;;;;;;;;;-0.40;99.90;;;;;;5133438;27;19964;-76
2024/01/13 07:56:45;;;;;;;;;;;-0.50;99.90;;;;;;5112971;27;19916;-75
2024/01/13 07:59:11;;;;;;;;;;;-0.50;99.90;;;;;;5132726;27;19976;-76
2024/01/13 08:01:37;;;;;;;;;;;-0.40;99.90;;;;;;5113612;27;19954;-74
2024/01/13 08:04:02;;;;;;;;;;;-0.20;99.90;;;;;;5132999;27;19916;-75
2024/01/13 08:06:29;;;;;;;;;;;0.10;99.90;;;;;;5133070;27;19949;-75
2024/01/13 08:08:56;;;;;;;;;;;0.40;99.90;;;;;;5132983;27;20307;-75
2024/01/13 08:11:21;;;;;;;;;;;0.90;99.90;;;;;;5114416;27;19911;-75
2024/01/13 08:13:47;;;;;;;;;;;1.00;99.90;;;;;;5132314;27;19915;-75
2024/01/13 08:16:12;;;;;;;;;;;1.20;99.90;;;;;;5114110;27;20425;-75
2024/01/13 08:18:38;;;;;;;;;;;1.40;99.90;;;;;;5119524;27;20265;-75
2024/01/13 08:21:04;;;;;;;;;;;1.70;99.90;;;;;;5130124;28;20410;-75
2024/01/13 08:23:29;;;;;;;;;;;2.10;99.90;;;;;;5114190;28;19926;-75
2024/01/13 08:25:55;;;;;;;;;;;2.40;99.90;;;;;;5114030;28;19907;-75
2024/01/13 08:28:20;;;;;;;;;;;2.70;99.90;;;;;;5114383;28;19960;-75
2024/01/13 08:30:46;;;;;;;;;;;3.10;99.90;;;;;;5114214;28;19912;-75
2024/01/13 08:33:11;;;;;;;;;;;3.10;99.90;;;;;;5132815;28;19907;-76
2024/01/13 08:35:37;;;;;;;;;;;3.10;99.90;;;;;;5113955;28;19946;-75
2024/01/13 08:38:02;;;;;;;;;;;3.00;99.90;;;;;;5132297;28;19907;-76
2024/01/13 08:40:28;;;;;;;;;;;3.00;99.90;;;;;;5094838;28;20392;-75
2024/01/13 08:42:53;;;;;;;;;;;3.00;99.90;;;;;;5109948;28;19964;-75
2024/01/13 08:45:20;;;;;;;;;;;3.10;99.90;;;;;;5102369;28;19916;-76
2024/01/13 08:47:45;;;;;;;;;;;3.00;99.90;;;;;;5096058;28;19919;-75
2024/01/13 08:50:11;;;;;;;;;;;3.10;99.90;;;;;;5109760;28;19907;-75
2024/01/13 08:52:36;;;;;;;;;;;3.00;99.90;;;;;;5110816;28;19912;-75
2024/01/13 08:55:02;;;;;;;;;;;3.00;99.90;;;;;;5107533;28;19908;-75
2024/01/13 08:57:27;;;;;;;;;;;3.00;99.90;;;;;;5112089;28;20605;-75
2024/01/13 08:59:53;;;;;;;;;;;3.20;99.90;;;;;;5110944;28;20321;-75
2024/01/13 09:02:18;;;;;;;;;;;3.30;99.90;;;;;;5111608;28;19927;-76
2024/01/13 09:04:44;;;;;;;;;;;3.30;99.90;;;;;;5113203;28;20364;-75
2024/01/13 09:07:09;;;;;;;;;;;3.30;99.90;;;;;;5112633;28;19911;-75
2024/01/13 09:09:35;;;;;;;;;;;3.40;99.90;;;;;;5112379;28;19908;-75
2024/01/13 09:12:01;;;;;;;;;;;3.60;99.90;;;;;;5113769;28;20447;-76
2024/01/13 09:14:27;;;;;;;;;;;3.70;99.90;;;;;;5114428;28;20364;-76
2024/01/13 09:16:52;;;;;;;;;;;3.80;99.90;;;;;;5114886;28;19922;-76
2024/01/13 09:19:18;;;;;;;;;;;3.80;99.90;;;;;;5114216;28;20014;-76
2024/01/13 09:21:43;;;;;;;;;;;3.90;99.90;;;;;;5116418;28;19911;-76
2024/01/13 09:24:09;;;;;;;;;;;3.80;99.90;;;;;;5116170;28;19966;-76
2024/01/13 09:26:39;;;;;;;;;;;3.80;99.90;;;;;;5114412;28;20397;-75
2024/01/13 09:29:04;;;;;;;;;;;3.80;99.90;;;;;;5118566;28;19933;-76
2024/01/13 09:31:30;;;;;;;;;;;3.90;99.90;;;;;;5120527;28;20002;-75
2024/01/13 09:33:56;;;;;;;;;;;3.80;99.90;;;;;;5116602;28;20324;-76
2024/01/13 09:36:21;;;;;;;;;;;3.80;99.90;;;;;;5105588;28;19969;-75
2024/01/13 09:38:47;;;;;;;;;;;3.70;99.90;;;;;;5109803;28;19965;-75
2024/01/13 09:41:13;;;;;;;;;;;3.60;99.90;;;;;;5096219;28;20431;-75
2024/01/13 09:43:57;;;;;;;;;;;3.50;99.90;;;;;;5095313;28;19916;-76
2024/01/13 09:46:23;;;;;;;;;;;3.30;99.90;;;;;;5111148;28;19919;-76
2024/01/13 09:48:49;;;;;;;;;;;3.20;99.90;;;;;;5104779;28;19912;-76
2024/01/13 09:51:15;;;;;;;;;;;3.20;99.90;;;;;;5098464;28;19912;-75
2024/01/13 09:53:47;;;;;;;;;;;3.10;99.90;;;;;;5098631;28;19912;-76
2024/01/13 09:56:15;;;;;;;;;;;3.00;99.90;;;;;;5114530;28;19908;-76
2024/01/13 09:58:41;;;;;;;;;;;3.10;99.90;;;;;;5097164;28;19916;-76
2024/01/13 10:01:07;;;;;;;;;;;3.10;99.90;;;;;;5110848;28;19908;-77
2024/01/13 10:03:32;;;;;;;;;;;3.10;99.90;;;;;;5117544;28;20299;-76
2024/01/13 10:05:59;;;;;;;;;;;2.90;99.90;;;;;;5116670;28;19908;-76
2024/01/13 10:08:30;;;;;;;;;;;2.80;99.90;;;;;;5113164;28;19915;-76
2024/01/13 10:10:55;;;;;;;;;;;2.70;99.90;;;;;;5103181;28;19912;-75
2024/01/13 10:13:21;;;;;;;;;;;2.60;99.90;;;;;;5093387;28;20276;-76
2024/01/13 10:15:47;;;;;;;;;;;2.50;99.90;;;;;;5094336;28;19975;-76
2024/01/13 10:18:13;;;;;;;;;;;2.60;99.90;;;;;;5094679;28;19908;-75
2024/01/13 10:20:39;;;;;;;;;;;2.50;99.90;;;;;;5093324;28;19908;-76
2024/01/13 10:23:04;;;;;;;;;;;2.40;99.90;;;;;;5094399;28;20010;-75
2024/01/13 10:25:30;;;;;;;;;;;2.40;99.90;;;;;;5094893;28;19959;-76
2024/01/13 10:27:55;;;;;;;;;;;2.40;99.90;;;;;;5092865;28;19908;-76
2024/01/13 10:30:21;;;;;;;;;;;2.40;99.90;;;;;;5092924;28;19912;-76
2024/01/13 10:32:47;;;;;;;;;;;2.50;99.90;;;;;;5106520;28;19914;-76
2024/01/13 10:35:17;;;;;;;;;;;2.50;99.90;;;;;;5106367;28;19909;-75
2024/01/13 10:37:43;;;;;;;;;;;2.50;99.90;;;;;;5100567;28;19912;-77
2024/01/13 10:40:09;;;;;;;;;;;2.60;99.90;;;;;;5119395;27;19994;-76
2024/01/13 10:42:36;;;;;;;;;;;2.70;99.90;;;;;;5134390;27;19964;-76
2024/01/13 10:45:05;;;;;;;;;;;2.80;99.90;;;;;;5116557;27;20326;-76
2024/01/13 10:47:32;;;;;;;;;;;2.90;99.90;;;;;;5107613;28;20388;-76
2024/01/13 10:50:00;;;;;;;;;;;3.00;99.90;;;;;;5096538;28;20384;-76
2024/01/13 10:52:44;;;;;;;;;;;3.10;99.90;;;;;;5119659;27;19919;-75
2024/01/13 10:55:10;;;;;;;;;;;3.10;99.90;;;;;;5101001;27;19920;-76
2024/01/13 10:57:36;;;;;;;;;;;3.10;99.90;;;;;;5116680;27;19963;-75
2024/01/13 11:00:02;;;;;;;;;;;3.20;99.90;;;;;;5134988;27;20100;-76
2024/01/13 11:02:32;;;;;;;;;;;3.10;99.90;;;;;;5119647;27;20080;-76
2024/01/13 11:04:58;;;;;;;;;;;3.10;99.90;;;;;;5109601;27;19911;-76
2024/01/13 11:07:24;;;;;;;;;;;3.00;99.90;;;;;;5124882;27;20349;-76
2024/01/13 11:09:50;;;;;;;;;;;2.90;99.90;;;;;;5121977;27;19965;-76
2024/01/13 11:12:27;;;;;;;;;;;2.90;99.90;;;;;;5125007;27;19911;-76
2024/01/13 11:15:16;;;;;;;;;;;2.90;99.90;;;;;;5130638;27;20303;-76
2024/01/13 11:17:41;;;;;;;;;;;2.80;99.90;;;;;;5095554;28;19915;-76
2024/01/13 11:20:10;;;;;;;;;;;2.70;99.90;;;;;;5096253;28;20323;-75
2024/01/13 11:22:36;;;;;;;;;;;2.60;99.90;;;;;;5100701;27;20302;-77
2024/01/13 11:25:02;;;;;;;;;;;2.50;99.60;;;;;;5096388;28;19911;-76
2024/01/13 11:27:28;;;;;;;;;;;2.40;99.90;;;;;;5096727;28;19909;-75
2024/01/13 11:29:55;;;;;;;;;;;2.20;99.90;;;;;;5095748;28;19948;-76
2024/01/13 11:32:24;;;;;;;;;;;2.10;99.90;;;;;;5103221;28;19915;-76
2024/01/13 11:34:49;;;;;;;;;;;1.90;99.90;;;;;;5097293;28;20423;-75
2024/01/13 11:37:15;;;;;;;;;;;2.10;99.90;;;;;;5115507;27;20375;-75
2024/01/13 11:39:44;;;;;;;;;;;1.90;99.90;;;;;;5125925;27;20027;-77
2024/01/13 11:42:10;;;;;;;;;;;1.90;99.90;;;;;;5122416;27;19922;-77
2024/01/13 11:44:43;;;;;;;;;;;1.90;99.90;;;;;;5095445;28;19990;-76
2024/01/13 11:47:12;;;;;;;;;;;1.80;99.90;;;;;;5095006;28;20003;-76
2024/01/13 11:49:38;;;;;;;;;;;1.80;99.90;;;;;;5113713;28;19916;-75
2024/01/13 11:52:05;;;;;;;;;;;1.80;99.90;;;;;;5094993;28;19908;-76
2024/01/13 11:54:31;;;;;;;;;;;1.80;99.90;;;;;;5102721;27;19915;-76
2024/01/13 11:56:57;;;;;;;;;;;1.80;99.90;;;;;;5134036;27;20279;-76
2024/01/13 11:59:23;;;;;;;;;;;1.70;99.90;;;;;;5133654;27;20001;-76
2024/01/13 12:01:49;;;;;;;;;;;1.80;99.90;;;;;;5133806;27;20428;-76
2024/01/13 12:04:18;;;;;;;;;;;2.00;99.90;;;;;;5131135;27;19994;-76
2024/01/13 12:06:45;;;;;;;;;;;2.10;99.90;;;;;;5121358;27;19919;-76
2024/01/13 12:09:11;;;;;;;;;;;2.10;99.90;;;;;;5105376;28;19923;-75
2024/01/13 12:11:37;;;;;;;;;;;2.20;99.90;;;;;;5100059;27;19912;-76
2024/01/13 12:14:03;;;;;;;;;;;2.40;99.90;;;;;;5122643;27;19912;-76
2024/01/13 12:16:29;;;;;;;;;;;2.50;99.90;;;;;;5121427;28;20002;-76
2024/01/13 12:18:55;;;;;;;;;;;2.50;99.90;;;;;;5121950;27;19995;-76
2024/01/13 12:21:20;;;;;;;;;;;2.50;99.90;;;;;;5124476;28;19911;-76
2024/01/13 12:23:46;;;;;;;;;;;2.60;99.90;;;;;;5121737;28;20364;-76
2024/01/13 12:26:12;;;;;;;;;;;2.60;99.90;;;;;;5105298;28;19916;-76
2024/01/13 12:28:39;;;;;;;;;;;2.50;99.90;;;;;;5106614;28;19994;-76
2024/01/13 12:31:05;;;;;;;;;;;2.60;99.90;;;;;;5114662;28;19929;-75
2024/01/13 12:33:31;;;;;;;;;;;2.60;99.90;;;;;;5133056;28;20379;-76
2024/01/13 12:36:00;;;;;;;;;;;2.60;99.90;;;;;;5114502;28;19911;-75
2024/01/13 12:38:26;;;;;;;;;;;2.70;99.90;;;;;;5114733;28;19962;-74
2024/01/13 12:40:52;;;;;;;;;;;2.80;99.90;;;;;;5132726;28;20380;-74
2024/01/13 12:43:18;;;;;;;;;;;2.80;99.90;;;;;;5114214;28;19919;-75
2024/01/13 12:45:44;;;;;;;;;;;2.70;99.90;;;;;;5127613;28;20467;-74
2024/01/13 12:48:10;;;;;;;;;;;2.80;99.90;;;;;;5132943;28;20023;-75
2024/01/13 12:50:35;;;;;;;;;;;2.80;99.90;;;;;;5124106;28;19908;-76
2024/01/13 12:53:01;;;;;;;;;;;2.80;99.90;;;;;;5127330;28;19911;-76
2024/01/13 12:55:26;;;;;;;;;;;2.90;99.90;;;;;;5134089;28;19946;-76
2024/01/13 12:57:52;;;;;;;;;;;2.90;99.90;;;;;;5134170;28;20396;-75
2024/01/13 13:00:18;;;;;;;;;;;2.80;99.90;;;;;;5133607;28;19911;-76
2024/01/13 13:02:44;;;;;;;;;;;2.80;99.90;;;;;;5133401;27;19920;-75
2024/01/13 13:05:10;;;;;;;;;;;2.90;99.90;;;;;;5137433;27;20002;-76
2024/01/13 13:07:35;;;;;;;;;;;2.80;99.90;;;;;;5120412;27;19993;-75
2024/01/13 13:10:01;;;;;;;;;;;2.80;99.90;;;;;;5120079;27;19911;-76
2024/01/13 13:12:27;;;;;;;;;;;2.80;99.90;;;;;;5139899;27;19911;-75
2024/01/13 13:14:52;;;;;;;;;;;2.80;99.90;;;;;;5120409;27;19907;-76
2024/01/13 13:17:18;;;;;;;;;;;2.80;99.90;;;;;;5137471;27;19911;-75
2024/01/13 13:19:44;;;;;;;;;;;2.70;99.90;;;;;;5137413;27;19915;-76
2024/01/13 13:22:09;;;;;;;;;;;2.90;99.90;;;;;;5119003;27;20367;-76
2024/01/13 13:24:35;;;;;;;;;;;2.90;99.90;;;;;;5118765;27;19911;-76
2024/01/13 13:27:01;;;;;;;;;;;3.00;99.90;;;;;;5118645;27;19919;-75
2024/01/13 13:29:26;;;;;;;;;;;3.00;99.90;;;;;;5118789;27;20283;-76
2024/01/13 13:31:52;;;;;;;;;;;3.00;99.90;;;;;;5137230;27;19911;-75
2024/01/13 13:34:18;;;;;;;;;;;3.00;99.90;;;;;;5137005;27;19911;-76
2024/01/13 13:36:43;;;;;;;;;;;3.00;99.90;;;;;;5136849;27;20006;-76
2024/01/13 13:39:09;;;;;;;;;;;2.90;99.90;;;;;;5135872;27;19923;-76
2024/01/13 13:41:35;;;;;;;;;;;2.80;99.90;;;;;;5118661;27;19911;-75
2024/01/13 13:44:00;;;;;;;;;;;2.90;99.90;;;;;;5118087;27;20570;-76
2024/01/13 13:46:25;;;;;;;;;;;2.80;99.90;;;;;;5132931;27;19914;-76
2024/01/13 13:48:51;;;;;;;;;;;2.70;99.90;;;;;;5138583;27;19907;-77
2024/01/13 13:51:17;;;;;;;;;;;2.80;99.90;;;;;;5120753;27;19907;-76
2024/01/13 13:53:42;;;;;;;;;;;2.70;99.90;;;;;;5136093;27;19907;-75
2024/01/13 13:56:08;;;;;;;;;;;2.70;99.90;;;;;;5135993;27;20363;-76
2024/01/13 13:58:33;;;;;;;;;;;2.60;99.90;;;;;;5136360;27;20060;-76
2024/01/13 14:00:59;;;;;;;;;;;2.50;99.90;;;;;;5117225;27;20404;-76
2024/01/13 14:03:24;;;;;;;;;;;2.40;99.90;;;;;;5135470;27;19923;-76
2024/01/13 14:05:50;;;;;;;;;;;2.30;99.90;;;;;;5135998;27;19911;-76
2024/01/13 14:08:15;;;;;;;;;;;2.20;99.90;;;;;;5117821;27;19907;-76
2024/01/13 14:10:41;;;;;;;;;;;2.00;99.90;;;;;;5117516;27;19954;-76
2024/01/13 14:13:07;;;;;;;;;;;2.00;99.90;;;;;;5135879;27;19908;-76
2024/01/13 14:15:33;;;;;;;;;;;1.90;99.90;;;;;;5134464;27;19999;-75